createdAt,value
2023-05-17T00:01:07.233Z,9.60
2023-05-17T00:03:34.285Z,9.50
2023-05-17T00:06:01.380Z,9.50
2023-05-17T00:08:28.379Z,9.50
2023-05-17T00:10:55.447Z,9.50
2023-05-17T00:13:22.470Z,9.50
2023-05-17T00:15:49.484Z,9.50
2023-05-17T00:18:16.533Z,9.40
2023-05-17T00:20:43.655Z,9.30
2023-05-17T00:23:10.734Z,9.30
2023-05-17T00:25:37.750Z,9.20
2023-05-17T00:28:04.955Z,9.20
2023-05-17T00:30:31.926Z,9.20
2023-05-17T00:35:26.486Z,9.10
2023-05-17T00:37:53.679Z,9.10
2023-05-17T00:40:20.998Z,9.00
2023-05-17T00:42:48.210Z,9.00
2023-05-17T00:45:15.329Z,9.00
2023-05-17T00:47:42.917Z,9.00
2023-05-17T00:50:12.065Z,8.90
2023-05-17T00:52:39.097Z,8.90
2023-05-17T00:55:06.670Z,8.90
2023-05-17T00:57:33.671Z,8.90
2023-05-17T01:00:01.525Z,8.90
2023-05-17T01:02:28.562Z,8.80
2023-05-17T01:04:55.757Z,8.70
2023-05-17T01:07:22.765Z,8.70
2023-05-17T01:09:49.927Z,8.70
2023-05-17T01:12:43.498Z,8.70
2023-05-17T01:15:39.075Z,8.60
2023-05-17T01:18:25.917Z,8.60
2023-05-17T01:20:53.501Z,8.50
2023-05-17T01:23:45.811Z,8.50
2023-05-17T01:26:15.158Z,8.50
2023-05-17T01:28:44.051Z,8.50
2023-05-17T01:31:11.210Z,8.50
2023-05-17T01:33:38.733Z,8.50
2023-05-17T01:36:06.351Z,8.40
2023-05-17T01:38:34.427Z,8.40
2023-05-17T01:41:16.675Z,8.40
2023-05-17T01:43:48.644Z,8.20
2023-05-17T01:46:41.263Z,8.30
2023-05-17T01:49:32.600Z,8.30
2023-05-17T01:52:39.385Z,8.20
2023-05-17T01:55:17.646Z,8.20
2023-05-17T01:57:45.151Z,8.20
2023-05-17T02:00:12.671Z,8.20
2023-05-17T02:02:42.475Z,8.20
2023-05-17T02:05:09.786Z,8.10
2023-05-17T02:07:40.252Z,8.00
2023-05-17T02:10:07.761Z,7.90
2023-05-17T02:12:36.581Z,7.90
2023-05-17T02:15:04.027Z,7.90
2023-05-17T02:17:31.463Z,7.90
2023-05-17T02:19:58.515Z,7.90
2023-05-17T02:22:25.482Z,7.90
2023-05-17T02:24:52.574Z,7.90
2023-05-17T02:27:19.607Z,7.90
2023-05-17T02:29:46.653Z,7.90
2023-05-17T02:32:13.755Z,7.80
2023-05-17T02:34:40.799Z,7.80
2023-05-17T02:37:07.773Z,7.80
2023-05-17T02:39:34.768Z,7.90
2023-05-17T02:42:01.736Z,7.90
2023-05-17T02:44:28.782Z,7.80
2023-05-17T02:46:55.923Z,7.80
2023-05-17T02:49:22.949Z,7.80
2023-05-17T02:51:49.994Z,7.80
2023-05-17T02:54:17.529Z,7.80
2023-05-17T02:56:44.528Z,7.80
2023-05-17T02:59:11.853Z,7.70
2023-05-17T03:01:42.303Z,7.70
2023-05-17T03:04:09.473Z,7.70
2023-05-17T03:06:38.099Z,7.70
2023-05-17T03:09:05.174Z,7.70
2023-05-17T03:11:33.354Z,7.70
2023-05-17T03:14:02.103Z,7.70
2023-05-17T03:16:31.208Z,7.70
2023-05-17T03:18:59.547Z,7.70
2023-05-17T03:21:26.697Z,7.70
2023-05-17T03:23:53.760Z,7.70
2023-05-17T03:26:20.974Z,7.60
2023-05-17T03:28:51.778Z,7.60
2023-05-17T03:31:19.565Z,7.60
2023-05-17T03:33:47.231Z,7.60
2023-05-17T03:36:15.002Z,7.60
2023-05-17T03:38:42.215Z,7.60
2023-05-17T03:41:09.376Z,7.50
2023-05-17T03:43:36.391Z,7.40
2023-05-17T03:46:03.545Z,7.50
2023-05-17T03:48:30.657Z,7.50
2023-05-17T03:50:58.072Z,7.50
2023-05-17T03:53:25.019Z,7.50
2023-05-17T03:55:52.525Z,7.40
2023-05-17T03:58:19.528Z,7.40
2023-05-17T04:00:46.946Z,7.40
2023-05-17T04:03:19.878Z,7.40
2023-05-17T04:05:47.424Z,7.40
2023-05-17T04:08:14.519Z,7.40
2023-05-17T04:10:42.445Z,7.40
2023-05-17T04:13:09.789Z,7.40
2023-05-17T04:15:38.192Z,7.40
2023-05-17T04:18:06.606Z,7.40
2023-05-17T04:20:33.789Z,7.40
2023-05-17T04:23:01.904Z,7.40
2023-05-17T04:25:31.512Z,7.40
2023-05-17T04:27:59.009Z,7.40
2023-05-17T04:30:26.193Z,7.40
2023-05-17T04:32:53.247Z,7.50
2023-05-17T04:35:20.350Z,7.50
2023-05-17T04:37:51.018Z,7.50
2023-05-17T04:40:21.503Z,7.50
2023-05-17T04:42:49.536Z,7.50
2023-05-17T04:45:17.932Z,7.50
2023-05-17T04:47:45.265Z,7.60
2023-05-17T04:50:12.845Z,7.60
2023-05-17T04:52:40.277Z,7.60
2023-05-17T04:55:09.001Z,7.60
2023-05-17T04:57:36.935Z,7.60
2023-05-17T05:00:07.061Z,7.70
2023-05-17T05:02:34.822Z,7.70
2023-05-17T05:05:05.144Z,7.70
2023-05-17T05:07:32.989Z,7.60
2023-05-17T05:10:01.356Z,7.70
2023-05-17T05:12:28.912Z,7.80
2023-05-17T05:14:56.592Z,7.90
2023-05-17T05:17:24.602Z,8.20
2023-05-17T05:19:52.508Z,8.60
2023-05-17T05:22:19.843Z,9.10
2023-05-17T05:24:46.977Z,9.50
2023-05-17T05:27:14.550Z,9.90
2023-05-17T05:29:42.866Z,10.40
2023-05-17T05:32:11.368Z,10.60
2023-05-17T05:34:44.183Z,11.00
2023-05-17T05:37:11.248Z,11.50
2023-05-17T05:39:38.496Z,11.90
2023-05-17T05:42:06.035Z,12.40
2023-05-17T05:44:33.089Z,12.50
2023-05-17T05:47:00.707Z,12.80
2023-05-17T05:49:27.705Z,13.10
2023-05-17T05:51:55.266Z,13.30
2023-05-17T05:54:22.840Z,13.40
2023-05-17T05:56:51.689Z,13.60
2023-05-17T05:59:20.312Z,13.90
2023-05-17T06:01:48.008Z,14.30
2023-05-17T06:04:15.035Z,14.70
2023-05-17T06:06:42.355Z,15.00
2023-05-17T06:09:12.442Z,15.20
2023-05-17T06:11:39.972Z,15.40
2023-05-17T06:14:07.091Z,15.50
2023-05-17T06:16:34.739Z,15.90
2023-05-17T06:19:01.932Z,16.20
2023-05-17T06:21:29.057Z,16.60
2023-05-17T06:23:56.177Z,16.90
2023-05-17T06:26:23.407Z,17.10
2023-05-17T06:28:50.718Z,17.30
2023-05-17T06:31:19.079Z,17.40
2023-05-17T06:33:47.495Z,17.60
2023-05-17T06:36:14.646Z,17.80
2023-05-17T06:38:41.684Z,18.10
2023-05-17T06:41:08.718Z,18.10
2023-05-17T06:43:37.784Z,18.20
2023-05-17T06:46:05.015Z,18.40
2023-05-17T06:48:32.277Z,18.40
2023-05-17T06:50:59.434Z,18.50
2023-05-17T06:53:27.487Z,18.70
2023-05-17T06:55:54.603Z,18.60
2023-05-17T06:58:21.597Z,18.80
2023-05-17T07:00:48.813Z,19.20
2023-05-17T07:03:16.111Z,19.20
2023-05-17T07:05:43.227Z,19.30
2023-05-17T07:08:10.239Z,19.30
2023-05-17T07:10:37.335Z,19.40
2023-05-17T07:13:07.244Z,19.60
2023-05-17T07:15:34.412Z,19.80
2023-05-17T07:18:01.617Z,20.30
2023-05-17T07:20:28.927Z,20.70
2023-05-17T07:22:56.507Z,20.80
2023-05-17T07:25:23.525Z,20.40
2023-05-17T07:27:51.120Z,20.60
2023-05-17T07:30:18.140Z,20.80
2023-05-17T07:32:45.211Z,20.60
2023-05-17T07:35:12.287Z,21.10
2023-05-17T07:37:39.311Z,21.30
2023-05-17T07:40:07.400Z,21.30
2023-05-17T07:42:34.535Z,21.60
2023-05-17T07:45:01.650Z,21.50
2023-05-17T07:47:28.821Z,21.70
2023-05-17T07:49:56.716Z,21.90
2023-05-17T07:52:24.035Z,21.30
2023-05-17T07:54:51.260Z,21.50
2023-05-17T07:57:18.814Z,22.10
2023-05-17T07:59:46.319Z,22.20
2023-05-17T08:02:13.338Z,22.30
2023-05-17T08:04:42.116Z,22.50
2023-05-17T08:07:09.064Z,22.60
2023-05-17T08:09:36.120Z,22.80
2023-05-17T08:12:03.183Z,22.70
2023-05-17T08:14:30.314Z,22.40
2023-05-17T08:16:57.338Z,22.60
2023-05-17T08:19:24.484Z,22.60
2023-05-17T08:21:51.641Z,22.40
2023-05-17T08:24:19.356Z,22.40
2023-05-17T08:26:46.477Z,22.20
2023-05-17T08:29:13.608Z,22.00
2023-05-17T08:31:40.691Z,21.90
2023-05-17T08:34:07.940Z,22.00
2023-05-17T08:36:35.041Z,22.00
2023-05-17T08:39:02.382Z,22.30
2023-05-17T08:41:29.478Z,22.20
2023-05-17T08:43:57.244Z,22.60
2023-05-17T08:46:24.341Z,23.00
2023-05-17T08:48:52.195Z,23.00
2023-05-17T08:51:22.282Z,23.00
2023-05-17T08:53:50.867Z,22.60
2023-05-17T08:56:20.970Z,22.80
2023-05-17T08:58:57.092Z,22.90
2023-05-17T09:01:26.472Z,23.00
2023-05-17T09:03:54.603Z,23.20
2023-05-17T09:06:22.497Z,23.30
2023-05-17T09:08:53.646Z,23.50
2023-05-17T09:11:33.764Z,22.70
2023-05-17T09:14:01.972Z,22.30
2023-05-17T09:16:30.422Z,22.60
2023-05-17T09:18:58.517Z,22.80
2023-05-17T09:21:26.313Z,22.90
2023-05-17T09:24:04.669Z,22.90
2023-05-17T09:26:43.311Z,22.80
2023-05-17T09:29:15.437Z,22.40
2023-05-17T09:31:42.883Z,22.60
2023-05-17T09:34:10.298Z,22.00
2023-05-17T09:36:38.115Z,22.10
2023-05-17T09:39:06.491Z,22.20
2023-05-17T09:41:34.383Z,21.70
2023-05-17T09:44:01.900Z,22.00
2023-05-17T09:46:33.408Z,21.00
2023-05-17T09:49:02.267Z,20.40
2023-05-17T09:51:42.919Z,20.50
2023-05-17T09:54:13.480Z,20.90
2023-05-17T09:56:40.739Z,20.70
2023-05-17T09:59:16.989Z,20.50
2023-05-17T10:01:47.868Z,21.00
2023-05-17T10:04:15.078Z,21.20
2023-05-17T10:09:16.046Z,20.80
2023-05-17T10:11:47.129Z,20.60
2023-05-17T10:14:14.143Z,20.50
2023-05-17T10:16:41.616Z,20.40
2023-05-17T10:19:09.271Z,20.50
2023-05-17T10:21:36.545Z,20.20
2023-05-17T10:24:03.850Z,20.50
2023-05-17T10:26:30.942Z,20.80
2023-05-17T10:29:01.934Z,21.20
2023-05-17T10:31:39.360Z,21.10
2023-05-17T10:34:09.481Z,21.10
2023-05-17T10:36:36.657Z,20.70
2023-05-17T10:39:03.721Z,20.70
2023-05-17T10:41:34.525Z,20.90
2023-05-17T10:44:03.364Z,20.40
2023-05-17T10:46:31.055Z,20.20
2023-05-17T10:48:59.329Z,19.90
2023-05-17T10:51:31.648Z,20.20
2023-05-17T10:54:14.341Z,20.20
2023-05-17T10:56:43.229Z,20.20
2023-05-17T10:59:27.055Z,20.50
2023-05-17T11:02:00.334Z,20.60
2023-05-17T11:04:33.834Z,20.70
2023-05-17T11:07:22.451Z,20.80
2023-05-17T11:10:06.196Z,20.90
2023-05-17T11:12:40.863Z,21.10
2023-05-17T11:15:10.863Z,21.40
2023-05-17T11:17:44.301Z,21.20
2023-05-17T11:20:32.669Z,20.70
2023-05-17T11:23:16.109Z,20.70
2023-05-17T11:25:43.121Z,20.70
2023-05-17T11:28:18.138Z,20.70
2023-05-17T11:30:51.634Z,20.70
2023-05-17T11:33:32.463Z,20.40
2023-05-17T11:36:07.558Z,20.40
2023-05-17T11:38:34.847Z,20.20
2023-05-17T11:41:26.373Z,20.30
2023-05-17T11:43:54.638Z,19.80
2023-05-17T11:46:22.914Z,19.90
2023-05-17T11:48:53.367Z,20.00
2023-05-17T11:51:24.378Z,19.80
2023-05-17T11:53:55.681Z,19.70
2023-05-17T11:56:35.711Z,19.70
2023-05-17T11:59:10.486Z,19.70
2023-05-17T12:01:47.117Z,19.60
2023-05-17T12:04:14.365Z,19.50
2023-05-17T12:06:41.498Z,19.40
2023-05-17T12:09:11.344Z,19.30
2023-05-17T12:11:39.718Z,19.20
2023-05-17T12:14:07.433Z,19.20
2023-05-17T12:16:35.206Z,19.30
2023-05-17T12:19:02.439Z,19.40
2023-05-17T12:21:29.576Z,19.50
2023-05-17T12:23:56.559Z,19.40
2023-05-17T12:26:23.852Z,19.20
2023-05-17T12:28:56.342Z,19.00
2023-05-17T12:31:33.419Z,19.00
2023-05-17T12:34:02.708Z,19.00
2023-05-17T12:36:30.069Z,19.20
2023-05-17T12:38:57.154Z,19.30
2023-05-17T12:41:26.299Z,19.30
2023-05-17T12:44:06.265Z,19.30
2023-05-17T12:46:40.551Z,19.50
2023-05-17T12:49:08.751Z,19.90
2023-05-17T12:51:45.590Z,20.10
2023-05-17T12:54:14.110Z,19.90
2023-05-17T12:56:44.728Z,19.90
2023-05-17T12:59:18.923Z,20.10
2023-05-17T13:01:47.205Z,20.40
2023-05-17T13:04:14.788Z,20.60
2023-05-17T13:06:45.911Z,20.60
2023-05-17T13:09:13.546Z,20.80
2023-05-17T13:11:44.598Z,20.80
2023-05-17T13:14:14.505Z,20.40
2023-05-17T13:16:43.007Z,20.20
2023-05-17T13:19:16.034Z,20.10
2023-05-17T13:21:43.182Z,19.70
2023-05-17T13:24:11.305Z,19.40
2023-05-17T13:26:38.355Z,19.70
2023-05-17T13:29:05.339Z,19.50
2023-05-17T13:31:32.343Z,19.70
2023-05-17T13:33:59.656Z,19.90
2023-05-17T13:36:26.853Z,20.10
2023-05-17T13:38:53.907Z,20.10
2023-05-17T13:41:21.103Z,20.30
2023-05-17T13:43:48.095Z,20.40
2023-05-17T13:46:15.157Z,20.30
2023-05-17T13:48:42.978Z,20.30
2023-05-17T13:51:10.148Z,20.40
2023-05-17T13:53:38.854Z,20.50
2023-05-17T13:56:06.250Z,20.60
2023-05-17T13:58:33.348Z,20.50
2023-05-17T14:01:00.507Z,20.50
2023-05-17T14:03:27.657Z,20.50
2023-05-17T14:05:55.524Z,20.50
2023-05-17T14:08:22.648Z,20.40
2023-05-17T14:10:49.691Z,20.50
2023-05-17T14:13:16.688Z,20.40
2023-05-17T14:15:43.729Z,20.40
2023-05-17T14:18:11.101Z,20.50
2023-05-17T14:20:38.328Z,20.50
2023-05-17T14:23:06.136Z,20.50
2023-05-17T14:25:33.451Z,20.60
2023-05-17T14:28:00.661Z,20.30
2023-05-17T14:30:27.702Z,20.00
2023-05-17T14:32:54.853Z,19.80
2023-05-17T14:35:21.979Z,19.80
2023-05-17T14:37:49.114Z,19.70
2023-05-17T14:40:16.288Z,19.70
2023-05-17T14:42:43.561Z,19.50
2023-05-17T14:45:10.755Z,19.60
2023-05-17T14:47:37.871Z,19.60
2023-05-17T14:50:05.310Z,19.30
2023-05-17T14:52:32.310Z,19.20
2023-05-17T14:54:59.496Z,19.20
2023-05-17T14:57:26.571Z,19.10
2023-05-17T14:59:53.784Z,18.80
2023-05-17T15:02:20.867Z,18.50
2023-05-17T15:04:48.252Z,18.10
2023-05-17T15:07:15.594Z,18.10
2023-05-17T15:09:43.264Z,18.20
2023-05-17T15:12:13.729Z,18.30
2023-05-17T15:14:41.169Z,18.40
2023-05-17T15:17:08.383Z,18.70
2023-05-17T15:19:35.524Z,18.70
2023-05-17T15:22:02.624Z,18.50
2023-05-17T15:24:29.986Z,18.50
2023-05-17T15:26:57.016Z,18.50
2023-05-17T15:29:24.078Z,18.60
2023-05-17T15:31:51.364Z,18.50
2023-05-17T15:34:18.601Z,18.60
2023-05-17T15:36:46.016Z,18.50
2023-05-17T15:39:13.102Z,18.50
2023-05-17T15:41:40.685Z,18.60
2023-05-17T15:44:09.195Z,18.60
2023-05-17T15:46:36.368Z,18.50
2023-05-17T15:49:03.535Z,18.50
2023-05-17T15:51:30.683Z,18.50
2023-05-17T15:53:57.755Z,18.40
2023-05-17T15:56:24.831Z,18.30
2023-05-17T15:58:52.163Z,18.10
2023-05-17T16:01:19.225Z,17.80
2023-05-17T16:03:46.971Z,17.70
2023-05-17T16:06:14.701Z,17.60
2023-05-17T16:08:42.130Z,17.50
2023-05-17T16:11:10.196Z,17.30
2023-05-17T16:13:37.255Z,17.20
2023-05-17T16:16:04.415Z,17.20
2023-05-17T16:18:31.964Z,17.20
2023-05-17T16:21:04.416Z,17.20
2023-05-17T16:23:31.643Z,17.20
2023-05-17T16:25:58.655Z,17.30
2023-05-17T16:28:25.764Z,17.40
2023-05-17T16:30:52.954Z,17.30
2023-05-17T16:33:20.692Z,17.20
2023-05-17T16:35:51.552Z,17.10
2023-05-17T16:38:18.669Z,17.20
2023-05-17T16:40:46.118Z,17.30
2023-05-17T16:43:16.206Z,17.30
2023-05-17T16:45:44.459Z,17.20
2023-05-17T16:48:15.188Z,17.20
2023-05-17T16:50:42.685Z,17.30
2023-05-17T16:53:09.687Z,17.40
2023-05-17T16:55:36.852Z,17.40
2023-05-17T16:58:03.957Z,17.40
2023-05-17T17:00:31.571Z,17.20
2023-05-17T17:02:59.283Z,17.20
2023-05-17T17:05:29.437Z,17.30
2023-05-17T17:07:57.557Z,17.20
2023-05-17T17:10:24.615Z,17.20
2023-05-17T17:12:51.791Z,17.10
2023-05-17T17:15:18.813Z,17.10
2023-05-17T17:17:46.679Z,17.10
2023-05-17T17:20:13.905Z,17.00
2023-05-17T17:22:41.591Z,17.00
2023-05-17T17:25:09.314Z,16.80
2023-05-17T17:27:36.359Z,16.70
2023-05-17T17:30:04.216Z,16.80
2023-05-17T17:32:31.590Z,16.90
2023-05-17T17:34:58.841Z,17.00
2023-05-17T17:37:26.248Z,17.00
2023-05-17T17:39:53.302Z,17.10
2023-05-17T17:42:20.296Z,17.00
2023-05-17T17:44:47.452Z,17.00
2023-05-17T17:47:14.712Z,16.90
2023-05-17T17:49:41.829Z,16.90
2023-05-17T17:52:08.832Z,16.70
2023-05-17T17:54:35.884Z,16.70
2023-05-17T17:57:03.371Z,16.70
2023-05-17T17:59:30.457Z,16.70
2023-05-17T18:01:57.551Z,16.70
2023-05-17T18:04:24.578Z,16.50
2023-05-17T18:06:51.626Z,16.40
2023-05-17T18:09:18.805Z,16.40
2023-05-17T18:11:45.879Z,16.30
2023-05-17T18:14:15.364Z,16.40
2023-05-17T18:16:42.490Z,16.40
2023-05-17T18:19:09.594Z,16.30
2023-05-17T18:21:36.650Z,16.20
2023-05-17T18:24:03.646Z,16.20
2023-05-17T18:26:30.817Z,16.20
2023-05-17T18:28:57.882Z,16.10
2023-05-17T18:31:24.880Z,16.00
2023-05-17T18:33:56.303Z,16.00
2023-05-17T18:36:24.239Z,16.10
2023-05-17T18:38:51.261Z,15.90
2023-05-17T18:41:18.284Z,15.90
2023-05-17T18:43:45.262Z,15.80
2023-05-17T18:46:13.242Z,15.80
2023-05-17T18:48:41.046Z,15.70
2023-05-17T18:51:08.154Z,15.50
2023-05-17T18:53:36.338Z,15.60
2023-05-17T18:56:03.390Z,15.40
2023-05-17T18:58:30.414Z,15.30
2023-05-17T19:00:57.664Z,15.20
2023-05-17T19:03:24.688Z,15.20
2023-05-17T19:05:51.716Z,15.10
2023-05-17T19:08:18.698Z,15.00
2023-05-17T19:10:45.864Z,14.90
2023-05-17T19:13:13.875Z,14.90
2023-05-17T19:15:41.842Z,14.70
2023-05-17T19:18:08.878Z,14.80
2023-05-17T19:20:36.073Z,14.70
2023-05-17T19:23:03.805Z,14.70
2023-05-17T19:25:30.850Z,14.70
2023-05-17T19:27:57.902Z,14.70
2023-05-17T19:30:24.878Z,14.80
2023-05-17T19:32:51.938Z,14.70
2023-05-17T19:35:19.048Z,14.60
2023-05-17T19:37:46.218Z,14.50
2023-05-17T19:40:14.942Z,14.40
2023-05-17T19:42:41.969Z,14.30
2023-05-17T19:45:11.102Z,14.20
2023-05-17T19:47:38.175Z,14.20
2023-05-17T19:50:05.511Z,14.20
2023-05-17T19:52:32.567Z,14.10
2023-05-17T19:54:59.606Z,14.20
2023-05-17T19:57:27.424Z,14.10
2023-05-17T19:59:54.502Z,13.90
2023-05-17T20:02:21.507Z,14.00
2023-05-17T20:04:48.545Z,14.00
2023-05-17T20:07:17.234Z,14.00
2023-05-17T20:09:44.232Z,14.00
2023-05-17T20:12:11.233Z,13.90
2023-05-17T20:14:38.383Z,13.90
2023-05-17T20:17:05.469Z,14.00
2023-05-17T20:19:32.631Z,13.90
2023-05-17T20:21:59.784Z,13.90
2023-05-17T20:24:29.189Z,13.90
2023-05-17T20:26:59.340Z,13.90
2023-05-17T20:29:26.733Z,13.90
2023-05-17T20:31:53.785Z,13.90
2023-05-17T20:34:21.124Z,14.00
2023-05-17T20:36:48.189Z,13.90
2023-05-17T20:39:15.766Z,13.90
2023-05-17T20:41:42.806Z,13.90
2023-05-17T20:44:09.847Z,13.80
2023-05-17T20:46:36.801Z,13.80
2023-05-17T20:49:03.805Z,13.80
2023-05-17T20:51:31.177Z,13.70
2023-05-17T20:53:58.195Z,13.70
2023-05-17T20:56:25.769Z,13.60
2023-05-17T20:58:52.765Z,13.70
2023-05-17T21:01:19.879Z,13.70
2023-05-17T21:03:47.240Z,13.60
2023-05-17T21:06:14.393Z,13.50
2023-05-17T21:08:43.007Z,13.50
2023-05-17T21:11:10.057Z,13.50
2023-05-17T21:13:37.467Z,13.50
2023-05-17T21:16:04.906Z,13.50
2023-05-17T21:18:31.975Z,13.50
2023-05-17T21:20:58.989Z,13.50
2023-05-17T21:23:25.971Z,13.60
2023-05-17T21:25:53.031Z,13.50
2023-05-17T21:28:20.038Z,13.40
2023-05-17T21:30:47.059Z,13.40
2023-05-17T21:33:14.134Z,13.50
2023-05-17T21:35:41.314Z,13.40
2023-05-17T21:38:09.476Z,13.40
2023-05-17T21:40:36.525Z,13.40
2023-05-17T21:43:04.022Z,13.40
2023-05-17T21:45:31.292Z,13.40
2023-05-17T21:47:58.279Z,13.30
2023-05-17T21:50:25.485Z,13.40
2023-05-17T21:52:52.452Z,13.30
2023-05-17T21:55:19.477Z,13.30
2023-05-17T21:57:46.751Z,13.30
2023-05-17T22:00:15.517Z,13.30
2023-05-17T22:02:46.040Z,13.30
2023-05-17T22:05:13.388Z,13.30
2023-05-17T22:07:40.377Z,13.30
2023-05-17T22:10:09.555Z,13.30
2023-05-17T22:12:38.481Z,13.30
2023-05-17T22:15:06.088Z,13.30
2023-05-17T22:17:43.291Z,13.30
2023-05-17T22:20:17.109Z,13.30
2023-05-17T22:22:44.317Z,13.30
2023-05-17T22:25:11.627Z,13.30
2023-05-17T22:27:38.645Z,13.30
2023-05-17T22:30:06.689Z,13.40
2023-05-17T22:32:33.789Z,13.40
2023-05-17T22:35:00.887Z,13.30
2023-05-17T22:37:27.995Z,13.30
2023-05-17T22:39:54.980Z,13.30
2023-05-17T22:42:22.476Z,13.30
2023-05-17T22:44:49.482Z,13.20
2023-05-17T22:47:16.516Z,13.20
2023-05-17T22:49:43.612Z,13.20
2023-05-17T22:52:11.296Z,13.20
2023-05-17T22:54:38.539Z,13.10
2023-05-17T22:57:05.838Z,13.00
2023-05-17T22:59:33.314Z,13.00
2023-05-17T23:02:01.522Z,13.00
2023-05-17T23:04:30.635Z,13.00
2023-05-17T23:07:03.994Z,12.90
2023-05-17T23:09:31.094Z,12.90
2023-05-17T23:12:00.610Z,12.90
2023-05-17T23:14:27.691Z,12.80
2023-05-17T23:16:54.744Z,12.80
2023-05-17T23:19:23.656Z,12.70
2023-05-17T23:21:50.848Z,12.70
2023-05-17T23:24:17.854Z,12.70
2023-05-17T23:26:44.848Z,12.60
2023-05-17T23:29:12.781Z,12.60
2023-05-17T23:31:41.454Z,12.50
2023-05-17T23:34:08.581Z,12.50
2023-05-17T23:36:35.821Z,12.50
2023-05-17T23:39:02.916Z,12.50
2023-05-17T23:41:29.965Z,12.40
2023-05-17T23:43:57.328Z,12.40
2023-05-17T23:46:24.429Z,12.40
2023-05-17T23:48:51.618Z,12.30
2023-05-17T23:51:19.620Z,12.30
2023-05-17T23:53:49.159Z,12.30
2023-05-17T23:56:17.634Z,12.30
2023-05-17T23:58:45.624Z,12.30
